createdAt,value
2022-07-26T00:02:29.924Z,65.46
2022-07-26T00:05:12.283Z,65.78
2022-07-26T00:08:13.750Z,65.54
2022-07-26T00:10:56.252Z,65.72
2022-07-26T00:13:47.174Z,65.79
2022-07-26T00:16:28.705Z,65.80
2022-07-26T00:19:16.397Z,65.73
2022-07-26T00:22:17.347Z,66.81
2022-07-26T00:25:07.337Z,66.52
2022-07-26T00:27:49.031Z,66.39
2022-07-26T00:30:38.631Z,66.88
2022-07-26T00:33:20.002Z,67.17
2022-07-26T00:36:09.831Z,66.82
2022-07-26T00:38:50.294Z,67.17
2022-07-26T00:41:38.378Z,67.19
2022-07-26T00:44:20.411Z,66.91
2022-07-26T00:47:08.079Z,67.11
2022-07-26T00:49:51.291Z,67.24
2022-07-26T00:52:39.385Z,67.40
2022-07-26T00:55:21.777Z,67.47
2022-07-26T00:58:09.504Z,67.42
2022-07-26T01:00:54.077Z,67.13
2022-07-26T01:03:43.425Z,66.92
2022-07-26T01:06:27.311Z,67.22
2022-07-26T01:09:16.423Z,67.42
2022-07-26T01:11:58.687Z,66.92
2022-07-26T01:14:49.382Z,67.04
2022-07-26T01:17:31.672Z,67.52
2022-07-26T01:20:22.831Z,67.56
2022-07-26T01:23:03.305Z,67.58
2022-07-26T01:25:51.422Z,67.66
2022-07-26T01:28:33.664Z,67.71
2022-07-26T01:31:26.801Z,68.27
2022-07-26T01:34:07.595Z,67.43
2022-07-26T01:36:56.481Z,67.65
2022-07-26T01:39:37.305Z,68.09
2022-07-26T01:42:26.212Z,67.87
2022-07-26T01:45:07.674Z,67.73
2022-07-26T01:47:54.406Z,68.09
2022-07-26T01:50:36.072Z,68.27
2022-07-26T01:53:26.893Z,68.38
2022-07-26T01:56:07.344Z,68.33
2022-07-26T01:58:55.501Z,68.58
2022-07-26T02:01:38.915Z,68.31
2022-07-26T02:04:46.357Z,68.45
2022-07-26T02:07:27.622Z,68.70
2022-07-26T02:10:17.498Z,68.18
2022-07-26T02:13:00.320Z,67.98
2022-07-26T02:15:48.958Z,68.51
2022-07-26T02:18:29.441Z,68.71
2022-07-26T02:21:17.456Z,68.97
2022-07-26T02:23:58.323Z,69.02
2022-07-26T02:26:49.202Z,68.92
2022-07-26T02:29:34.184Z,69.42
2022-07-26T02:32:22.421Z,69.49
2022-07-26T02:35:04.851Z,69.28
2022-07-26T02:37:55.861Z,69.24
2022-07-26T02:40:36.348Z,69.44
2022-07-26T02:43:24.529Z,69.56
2022-07-26T02:46:05.746Z,70.43
2022-07-26T02:48:55.039Z,70.21
2022-07-26T02:51:50.107Z,70.93
2022-07-26T02:54:38.510Z,70.54
2022-07-26T02:57:21.368Z,70.46
2022-07-26T03:00:08.685Z,70.83
2022-07-26T03:02:49.482Z,70.63
2022-07-26T03:05:37.582Z,70.46
2022-07-26T03:08:19.376Z,70.41
2022-07-26T03:11:12.013Z,70.64
2022-07-26T03:13:54.358Z,70.22
2022-07-26T03:16:41.590Z,70.50
2022-07-26T03:19:22.418Z,70.69
2022-07-26T03:22:13.306Z,71.46
2022-07-26T03:24:54.352Z,71.44
2022-07-26T03:27:41.495Z,71.49
2022-07-26T03:30:25.308Z,71.39
2022-07-26T03:33:16.291Z,71.23
2022-07-26T03:35:57.421Z,71.79
2022-07-26T03:38:44.499Z,71.19
2022-07-26T03:41:25.398Z,71.81
2022-07-26T03:44:13.916Z,72.20
2022-07-26T03:46:54.758Z,71.82
2022-07-26T03:49:41.490Z,71.79
2022-07-26T03:52:36.383Z,71.89
2022-07-26T03:55:48.039Z,72.23
2022-07-26T03:58:28.369Z,72.67
2022-07-26T04:01:15.644Z,73.20
2022-07-26T04:03:56.404Z,73.02
2022-07-26T04:06:44.627Z,72.99
2022-07-26T04:09:27.653Z,72.23
2022-07-26T04:12:15.536Z,72.69
2022-07-26T04:14:56.526Z,73.11
2022-07-26T04:17:48.871Z,73.27
2022-07-26T04:20:31.528Z,72.83
2022-07-26T04:23:19.497Z,73.67
2022-07-26T04:26:01.169Z,74.16
2022-07-26T04:28:50.178Z,74.00
2022-07-26T04:31:36.359Z,73.73
2022-07-26T04:34:25.528Z,73.51
2022-07-26T04:37:08.452Z,73.89
2022-07-26T04:39:55.636Z,73.60
2022-07-26T04:42:36.446Z,73.56
2022-07-26T04:45:23.516Z,73.42
2022-07-26T04:48:05.503Z,73.30
2022-07-26T04:50:53.077Z,73.19
2022-07-26T04:53:41.003Z,73.26
2022-07-26T04:56:22.579Z,73.33
2022-07-26T04:59:09.793Z,72.83
2022-07-26T05:01:52.071Z,72.36
2022-07-26T05:04:39.800Z,72.17
2022-07-26T05:07:20.559Z,72.43
2022-07-26T05:10:15.938Z,73.25
2022-07-26T05:13:05.650Z,72.92
2022-07-26T05:15:46.440Z,72.62
2022-07-26T05:18:45.973Z,72.31
2022-07-26T05:21:29.857Z,72.70
2022-07-26T05:24:17.324Z,72.45
2022-07-26T05:27:00.048Z,72.15
2022-07-26T05:29:49.630Z,72.37
2022-07-26T05:32:31.772Z,72.31
2022-07-26T05:35:20.146Z,71.72
2022-07-26T05:38:01.583Z,72.00
2022-07-26T05:40:51.054Z,71.88
2022-07-26T05:43:40.702Z,72.25
2022-07-26T05:46:31.718Z,72.04
2022-07-26T05:49:17.743Z,71.91
2022-07-26T05:52:14.469Z,72.27
2022-07-26T05:55:01.829Z,72.43
2022-07-26T05:57:49.478Z,72.48
2022-07-26T06:00:36.580Z,72.01
2022-07-26T06:03:23.532Z,71.07
2022-07-26T06:06:11.847Z,70.94
2022-07-26T06:08:52.693Z,71.11
2022-07-26T06:11:39.487Z,70.46
2022-07-26T06:14:20.582Z,70.31
2022-07-26T06:17:10.523Z,70.48
2022-07-26T06:19:52.216Z,70.08
2022-07-26T06:22:39.481Z,69.96
2022-07-26T06:25:20.580Z,69.31
2022-07-26T06:28:12.125Z,68.86
2022-07-26T06:30:52.617Z,69.13
2022-07-26T06:33:40.860Z,69.25
2022-07-26T06:36:25.126Z,68.96
2022-07-26T06:39:16.481Z,68.60
2022-07-26T06:41:58.786Z,68.30
2022-07-26T06:44:47.697Z,68.20
2022-07-26T06:47:28.637Z,68.53
2022-07-26T06:50:17.345Z,69.43
2022-07-26T06:53:13.671Z,68.60
2022-07-26T06:55:57.406Z,67.01
2022-07-26T06:58:44.607Z,66.41
2022-07-26T07:01:57.032Z,66.00
2022-07-26T07:04:33.176Z,64.52
2022-07-26T07:07:15.477Z,63.65
2022-07-26T07:10:02.615Z,63.02
2022-07-26T07:12:43.893Z,62.79
2022-07-26T07:15:34.561Z,62.94
2022-07-26T07:18:18.999Z,61.94
2022-07-26T07:21:06.808Z,60.97
2022-07-26T07:23:47.493Z,60.99
2022-07-26T07:26:38.027Z,60.41
2022-07-26T07:29:22.392Z,59.42
2022-07-26T07:32:15.921Z,58.53
2022-07-26T07:35:00.282Z,57.43
2022-07-26T07:37:53.375Z,56.84
2022-07-26T07:40:34.559Z,55.49
2022-07-26T07:43:22.661Z,54.78
2022-07-26T07:46:04.533Z,54.23
2022-07-26T07:48:56.227Z,52.84
2022-07-26T07:51:38.507Z,51.58
2022-07-26T07:54:35.940Z,50.47
2022-07-26T07:57:16.654Z,49.25
2022-07-26T08:00:05.731Z,47.96
2022-07-26T08:02:50.858Z,47.63
2022-07-26T08:05:40.515Z,45.68
2022-07-26T08:08:22.894Z,42.87
2022-07-26T08:11:13.643Z,40.69
2022-07-26T08:13:56.678Z,38.10
2022-07-26T08:16:44.801Z,36.40
2022-07-26T08:19:25.655Z,35.41
2022-07-26T08:22:18.462Z,36.40
2022-07-26T08:25:00.928Z,37.86
2022-07-26T08:28:09.348Z,39.78
2022-07-26T08:31:20.129Z,41.43
2022-07-26T08:34:07.343Z,40.40
2022-07-26T08:37:15.811Z,38.60
2022-07-26T08:40:02.669Z,37.66
2022-07-26T08:42:43.586Z,38.63
2022-07-26T08:45:33.719Z,39.84
2022-07-26T08:48:17.765Z,42.38
2022-07-26T08:51:15.930Z,41.30
2022-07-26T08:54:14.356Z,42.58
2022-07-26T08:57:03.649Z,41.68
2022-07-26T08:59:44.944Z,38.31
2022-07-26T09:02:47.402Z,37.19
2022-07-26T09:05:39.656Z,39.05
2022-07-26T09:08:37.227Z,40.64
2022-07-26T09:11:31.493Z,42.45
2022-07-26T09:14:19.889Z,43.90
2022-07-26T09:17:07.331Z,44.55
2022-07-26T09:20:14.677Z,44.29
2022-07-26T09:23:08.593Z,43.42
2022-07-26T09:25:57.594Z,42.77
2022-07-26T09:28:45.060Z,41.83
2022-07-26T09:31:32.815Z,38.75
2022-07-26T09:34:14.060Z,37.22
2022-07-26T09:37:02.121Z,35.88
2022-07-26T09:40:01.602Z,34.47
2022-07-26T09:43:04.726Z,35.32
2022-07-26T09:45:46.360Z,36.20
2022-07-26T09:49:09.773Z,37.94
2022-07-26T09:51:48.687Z,39.54
2022-07-26T09:54:37.064Z,40.61
2022-07-26T09:57:17.629Z,40.55
2022-07-26T10:00:05.945Z,40.98
2022-07-26T10:02:48.588Z,41.58
2022-07-26T10:05:36.758Z,41.22
2022-07-26T10:08:19.593Z,41.31
2022-07-26T10:11:14.368Z,41.47
2022-07-26T10:13:55.999Z,41.03
2022-07-26T10:16:44.729Z,41.03
2022-07-26T10:20:09.444Z,39.97
2022-07-26T10:23:05.857Z,38.89
2022-07-26T10:25:46.649Z,38.46
2022-07-26T10:28:36.912Z,36.42
2022-07-26T10:31:28.049Z,36.01
2022-07-26T10:34:16.128Z,36.36
2022-07-26T10:37:06.005Z,35.73
2022-07-26T10:39:53.734Z,35.65
2022-07-26T10:42:49.631Z,34.77
2022-07-26T10:45:37.661Z,34.62
2022-07-26T10:48:22.635Z,34.51
2022-07-26T10:51:33.778Z,34.42
2022-07-26T10:54:24.616Z,35.59
2022-07-26T10:57:05.781Z,37.53
2022-07-26T10:59:56.289Z,38.81
2022-07-26T11:02:39.943Z,39.57
2022-07-26T11:05:35.757Z,40.22
2022-07-26T11:08:17.557Z,40.69
2022-07-26T11:11:06.185Z,40.12
2022-07-26T11:13:46.755Z,40.37
2022-07-26T11:16:48.025Z,39.62
2022-07-26T11:19:30.900Z,39.96
2022-07-26T11:22:17.645Z,39.86
2022-07-26T11:24:58.760Z,39.51
2022-07-26T11:28:11.658Z,38.52
2022-07-26T11:31:12.875Z,38.43
2022-07-26T11:34:03.035Z,37.54
2022-07-26T11:36:44.852Z,37.54
2022-07-26T11:39:40.049Z,37.77
2022-07-26T11:42:22.213Z,36.90
2022-07-26T11:45:09.025Z,36.40
2022-07-26T11:47:49.796Z,36.04
2022-07-26T11:50:36.770Z,36.63
2022-07-26T11:53:37.250Z,36.56
2022-07-26T11:56:25.114Z,36.35
2022-07-26T11:59:06.799Z,37.28
2022-07-26T12:01:57.714Z,38.16
2022-07-26T12:04:46.644Z,37.97
2022-07-26T12:07:35.079Z,36.91
2022-07-26T12:10:22.773Z,36.51
2022-07-26T12:13:55.400Z,36.70
2022-07-26T12:16:53.871Z,37.30
2022-07-26T12:19:43.445Z,37.28
2022-07-26T12:22:26.790Z,36.97
2022-07-26T12:25:15.860Z,35.48
2022-07-26T12:27:55.867Z,35.31
2022-07-26T12:30:43.715Z,35.54
2022-07-26T12:33:25.862Z,34.80
2022-07-26T12:36:32.297Z,36.20
2022-07-26T12:39:16.214Z,36.51
2022-07-26T12:42:02.770Z,36.89
2022-07-26T12:44:43.848Z,36.21
2022-07-26T12:47:33.110Z,36.08
2022-07-26T12:50:15.102Z,35.86
2022-07-26T12:53:14.780Z,36.46
2022-07-26T12:56:01.809Z,36.51
2022-07-26T12:58:43.104Z,36.27
2022-07-26T13:01:32.030Z,36.30
2022-07-26T13:04:13.369Z,36.92
2022-07-26T13:07:00.843Z,37.20
2022-07-26T13:09:42.766Z,37.27
2022-07-26T13:12:34.488Z,36.57
2022-07-26T13:15:16.828Z,35.61
2022-07-26T13:18:03.843Z,35.98
2022-07-26T13:20:48.505Z,35.67
2022-07-26T13:23:41.004Z,35.27
2022-07-26T13:26:21.789Z,35.29
2022-07-26T13:29:09.845Z,34.10
2022-07-26T13:31:50.860Z,34.30
2022-07-26T13:34:38.995Z,34.46
2022-07-26T13:37:20.130Z,33.63
2022-07-26T13:40:07.839Z,34.32
2022-07-26T13:42:49.588Z,33.67
2022-07-26T13:45:40.108Z,34.44
2022-07-26T13:48:20.757Z,34.54
2022-07-26T13:51:09.389Z,33.61
2022-07-26T13:54:03.779Z,33.57
2022-07-26T13:56:52.002Z,34.15
2022-07-26T13:59:34.523Z,33.88
2022-07-26T14:02:25.708Z,33.63
2022-07-26T14:05:08.156Z,33.76
2022-07-26T14:07:56.660Z,33.80
2022-07-26T14:10:37.776Z,33.89
2022-07-26T14:13:25.895Z,33.15
2022-07-26T14:16:06.759Z,33.68
2022-07-26T14:18:56.585Z,33.49
2022-07-26T14:21:58.741Z,33.94
2022-07-26T14:24:45.862Z,35.83
2022-07-26T14:27:26.781Z,34.83
2022-07-26T14:30:18.945Z,34.29
2022-07-26T14:32:59.761Z,34.59
2022-07-26T14:35:47.862Z,33.82
2022-07-26T14:38:30.155Z,33.62
2022-07-26T14:41:19.484Z,33.83
2022-07-26T14:44:00.817Z,33.68
2022-07-26T14:46:49.946Z,33.66
2022-07-26T14:49:33.570Z,34.05
2022-07-26T14:52:23.406Z,33.78
2022-07-26T14:55:10.193Z,33.54
2022-07-26T14:57:50.889Z,33.82
2022-07-26T15:00:38.876Z,34.52
2022-07-26T15:03:21.356Z,35.85
2022-07-26T15:06:07.820Z,36.62
2022-07-26T15:08:48.895Z,37.59
2022-07-26T15:11:35.810Z,36.99
2022-07-26T15:14:17.700Z,36.58
2022-07-26T15:17:06.799Z,36.66
2022-07-26T15:19:47.898Z,36.39
2022-07-26T15:22:34.816Z,36.72
2022-07-26T15:25:16.949Z,37.23
2022-07-26T15:28:04.177Z,37.06
2022-07-26T15:30:44.950Z,36.61
2022-07-26T15:33:33.172Z,36.46
2022-07-26T15:36:15.580Z,36.31
2022-07-26T15:39:16.069Z,37.43
2022-07-26T15:42:03.924Z,37.44
2022-07-26T15:44:54.884Z,37.67
2022-07-26T15:47:53.188Z,37.87
2022-07-26T15:50:48.823Z,37.56
2022-07-26T15:53:48.789Z,37.25
2022-07-26T15:56:35.818Z,37.93
2022-07-26T15:59:20.480Z,38.03
2022-07-26T16:02:09.261Z,38.63
2022-07-26T16:04:49.972Z,38.15
2022-07-26T16:07:41.244Z,38.94
2022-07-26T16:10:25.048Z,37.80
2022-07-26T16:13:15.931Z,38.45
2022-07-26T16:15:57.049Z,37.71
2022-07-26T16:18:43.878Z,37.76
2022-07-26T16:21:26.797Z,37.87
2022-07-26T16:24:14.843Z,36.96
2022-07-26T16:26:56.941Z,36.58
2022-07-26T16:29:43.865Z,36.67
2022-07-26T16:32:25.137Z,37.11
2022-07-26T16:35:18.100Z,37.24
2022-07-26T16:37:59.775Z,36.80
2022-07-26T16:40:46.875Z,37.11
2022-07-26T16:43:31.495Z,37.21
2022-07-26T16:46:18.404Z,37.29
2022-07-26T16:49:20.059Z,37.55
2022-07-26T16:52:07.628Z,37.98
2022-07-26T16:54:55.401Z,37.85
2022-07-26T16:57:38.395Z,37.86
2022-07-26T17:00:28.013Z,37.72
2022-07-26T17:03:09.272Z,38.12
2022-07-26T17:05:56.781Z,38.24
2022-07-26T17:08:39.640Z,37.10
2022-07-26T17:11:29.042Z,37.01
2022-07-26T17:14:09.871Z,37.55
2022-07-26T17:16:59.046Z,37.57
2022-07-26T17:19:40.257Z,37.22
2022-07-26T17:22:29.974Z,38.23
2022-07-26T17:25:14.366Z,38.27
2022-07-26T17:28:02.913Z,38.07
2022-07-26T17:30:45.743Z,38.72
2022-07-26T17:33:35.019Z,39.20
2022-07-26T17:36:26.878Z,39.34
2022-07-26T17:39:15.858Z,39.36
2022-07-26T17:41:56.864Z,39.73
2022-07-26T17:44:46.488Z,39.83
2022-07-26T17:47:29.022Z,39.80
2022-07-26T17:53:18.275Z,40.37
2022-07-26T17:56:11.996Z,40.62
2022-07-26T17:58:53.267Z,40.90
2022-07-26T18:01:50.559Z,41.91
2022-07-26T18:04:35.313Z,42.29
2022-07-26T18:07:22.986Z,41.82
2022-07-26T18:10:05.781Z,42.27
2022-07-26T18:12:55.168Z,42.19
2022-07-26T18:15:36.715Z,42.68
2022-07-26T18:18:24.993Z,42.58
2022-07-26T18:21:05.928Z,42.86
2022-07-26T18:24:15.744Z,43.03
2022-07-26T18:26:55.900Z,42.83
2022-07-26T18:29:43.992Z,42.85
2022-07-26T18:32:26.309Z,43.09
2022-07-26T18:35:14.652Z,43.46
2022-07-26T18:37:55.943Z,43.86
2022-07-26T18:40:45.026Z,44.23
2022-07-26T18:43:25.966Z,44.28
2022-07-26T18:46:14.073Z,44.15
2022-07-26T18:48:55.348Z,44.16
2022-07-26T18:51:46.119Z,44.34
2022-07-26T18:54:44.294Z,44.79
2022-07-26T18:57:32.921Z,44.60
2022-07-26T19:00:22.521Z,44.73
2022-07-26T19:03:10.009Z,45.52
2022-07-26T19:05:51.423Z,44.67
2022-07-26T19:08:39.236Z,44.39
2022-07-26T19:11:21.690Z,45.55
2022-07-26T19:14:11.038Z,44.98
2022-07-26T19:16:53.092Z,44.79
2022-07-26T19:19:42.972Z,44.91
2022-07-26T19:22:23.922Z,45.53
2022-07-26T19:25:16.188Z,45.66
2022-07-26T19:27:56.956Z,45.96
2022-07-26T19:30:45.890Z,45.98
2022-07-26T19:33:31.216Z,46.40
2022-07-26T19:36:25.355Z,47.08
2022-07-26T19:39:08.431Z,47.22
2022-07-26T19:41:55.527Z,47.53
2022-07-26T19:44:35.975Z,48.17
2022-07-26T19:47:26.646Z,47.99
2022-07-26T19:50:07.035Z,48.23
2022-07-26T19:52:55.088Z,48.85
2022-07-26T19:55:48.959Z,48.87
2022-07-26T19:58:37.059Z,49.46
2022-07-26T20:01:18.775Z,49.34
2022-07-26T20:04:06.099Z,49.66
2022-07-26T20:06:47.350Z,50.26
2022-07-26T20:09:37.117Z,51.15
2022-07-26T20:12:17.960Z,51.06
2022-07-26T20:15:05.288Z,50.89
2022-07-26T20:17:48.324Z,51.08
2022-07-26T20:20:37.069Z,51.10
2022-07-26T20:23:18.025Z,51.09
2022-07-26T20:26:05.878Z,51.29
2022-07-26T20:28:48.357Z,51.03
2022-07-26T20:31:41.072Z,52.18
2022-07-26T20:34:22.731Z,52.43
2022-07-26T20:37:11.574Z,53.00
2022-07-26T20:39:51.987Z,53.08
2022-07-26T20:42:44.260Z,53.44
2022-07-26T20:45:25.027Z,53.48
2022-07-26T20:48:20.318Z,53.33
2022-07-26T20:51:02.133Z,53.47
2022-07-26T20:53:57.977Z,53.08
2022-07-26T20:56:46.980Z,53.83
2022-07-26T20:59:29.480Z,53.28
2022-07-26T21:02:16.041Z,53.86
2022-07-26T21:04:58.832Z,54.33
2022-07-26T21:07:58.543Z,54.35
2022-07-26T21:10:41.458Z,54.53
2022-07-26T21:13:30.162Z,54.99
2022-07-26T21:16:12.199Z,54.78
2022-07-26T21:19:03.127Z,55.32
2022-07-26T21:21:45.674Z,55.78
2022-07-26T21:24:33.776Z,56.26
2022-07-26T21:27:15.153Z,56.39
2022-07-26T21:30:03.006Z,56.67
2022-07-26T21:32:44.391Z,57.15
2022-07-26T21:35:32.594Z,57.21
2022-07-26T21:38:13.104Z,57.00
2022-07-26T21:44:03.538Z,57.74
2022-07-26T21:46:51.168Z,57.55
2022-07-26T21:49:32.304Z,57.60
2022-07-26T21:52:20.379Z,58.28
2022-07-26T21:55:17.856Z,58.71
2022-07-26T21:58:05.775Z,59.23
2022-07-26T22:00:47.181Z,59.72
2022-07-26T22:03:35.021Z,60.51
2022-07-26T22:06:17.548Z,61.03
2022-07-26T22:09:06.055Z,60.87
2022-07-26T22:11:47.293Z,60.75
2022-07-26T22:14:34.825Z,60.87
2022-07-26T22:17:18.816Z,61.94
2022-07-26T22:20:07.045Z,62.53
2022-07-26T22:22:48.140Z,62.79
2022-07-26T22:25:38.790Z,62.87
2022-07-26T22:28:20.616Z,62.88
2022-07-26T22:31:08.457Z,63.13
2022-07-26T22:33:49.436Z,63.40
2022-07-26T22:36:36.060Z,63.82
2022-07-26T22:39:18.883Z,64.53
2022-07-26T22:42:15.263Z,64.61
2022-07-26T22:44:59.184Z,64.88
2022-07-26T22:47:55.885Z,64.90
2022-07-26T22:50:37.580Z,65.16
2022-07-26T22:53:25.061Z,65.22
2022-07-26T22:56:12.206Z,65.87
2022-07-26T22:59:00.555Z,66.50
2022-07-26T23:01:48.600Z,66.01
2022-07-26T23:04:30.009Z,65.73
2022-07-26T23:07:20.187Z,65.37
2022-07-26T23:10:02.081Z,65.74
2022-07-26T23:12:53.386Z,66.22
2022-07-26T23:15:35.061Z,66.35
2022-07-26T23:18:22.221Z,66.41
2022-07-26T23:21:04.047Z,66.14
2022-07-26T23:23:54.271Z,66.19
2022-07-26T23:26:36.983Z,66.00
2022-07-26T23:29:24.212Z,65.99
2022-07-26T23:32:05.071Z,66.58
2022-07-26T23:34:52.982Z,66.96
2022-07-26T23:37:34.484Z,67.52
2022-07-26T23:40:21.649Z,67.68
2022-07-26T23:43:03.067Z,67.84
2022-07-26T23:45:50.217Z,67.84
2022-07-26T23:48:31.168Z,67.67
2022-07-26T23:51:19.547Z,68.22
2022-07-26T23:54:00.984Z,67.80
2022-07-26T23:56:50.426Z,68.01
2022-07-26T23:59:31.104Z,68.37
